Weather at Rostki Airstrip

Public forecast

Using degrees Celsius for public forecast. Weather courtesy of forecast.io.

Closest aviation weather report (METAR) to Rostki Airstrip

Closest report is Olsztyn-Mazury Airport, 37.2 nm (69.0 km) WSW.

2024/06/18 06:00 (retrieved 37 minutes ago)

EPSY 180600Z 23004KT 190V270 CAVOK 20/16 Q1015

Closest aviation forecast (TAF) to Rostki Airstrip

Closest forecast is Khrabrovo Airport, 84.6 nm (156.6 km) NNW.

2024/06/18 06:21 (retrieved 16 minutes ago)

TAF TAF UMKK 180458Z 1806/1906 28003G10MPS 9999 BKN030 TEMPO 1808/1818 -TSRA SCT010 BKN020CB BECMG 1813/1815 VRB01MPS TEMPO 1821/1824 0300 PRFG SCT002 BECMG 1900/1902 15006G12MPS TEMPO 1902/1906 VRB13MPS 1200 TSRA SCT004 BKN016CB